createdAt,value
2022-09-04T00:01:43.164Z,101209.25
2022-09-04T00:04:25.373Z,101216.53
2022-09-04T00:07:02.183Z,101220.25
2022-09-04T00:09:43.395Z,101217.69
2022-09-04T00:12:11.260Z,101229.53
2022-09-04T00:14:44.337Z,101226.09
2022-09-04T00:17:19.946Z,101224.56
2022-09-04T00:19:53.940Z,101226.72
2022-09-04T00:22:36.159Z,101225.00
2022-09-04T00:25:14.279Z,101233.34
2022-09-04T00:27:46.979Z,101229.75
2022-09-04T00:30:19.818Z,101241.59
2022-09-04T00:32:55.751Z,101239.75
2022-09-04T00:35:31.325Z,101240.72
2022-09-04T00:38:05.017Z,101244.38
2022-09-04T00:40:38.359Z,101247.22
2022-09-04T00:43:35.190Z,101243.91
2022-09-04T00:46:25.536Z,101247.69
2022-09-04T00:49:22.780Z,101256.75
2022-09-04T00:51:57.778Z,101255.97
2022-09-04T00:54:48.699Z,101248.06
2022-09-04T00:57:45.113Z,101253.53
2022-09-04T01:00:15.468Z,101254.50
2022-09-04T01:03:09.360Z,101255.50
2022-09-04T01:05:45.966Z,101258.47
2022-09-04T01:08:24.491Z,101261.38
2022-09-04T01:11:07.943Z,101266.06
2022-09-04T01:13:42.309Z,101263.41
2022-09-04T01:16:16.685Z,101259.09
2022-09-04T01:18:56.339Z,101263.63
2022-09-04T01:21:56.347Z,101272.66
2022-09-04T01:24:39.456Z,101273.66
2022-09-04T01:27:10.996Z,101270.06
2022-09-04T01:29:50.295Z,101270.09
2022-09-04T01:32:30.206Z,101275.56
2022-09-04T01:35:06.962Z,101272.97
2022-09-04T01:37:50.920Z,101276.72
2022-09-04T01:40:35.180Z,101279.63
2022-09-04T01:43:11.291Z,101287.00
2022-09-04T01:45:54.223Z,101295.97
2022-09-04T01:48:31.143Z,101290.75
2022-09-04T01:51:07.295Z,101287.13
2022-09-04T01:53:38.287Z,101293.56
2022-09-04T01:56:14.861Z,101296.28
2022-09-04T01:58:51.481Z,101298.06
2022-09-04T02:01:24.891Z,101290.00
2022-09-04T02:04:01.486Z,101290.06
2022-09-04T02:06:34.206Z,101296.47
2022-09-04T02:09:15.472Z,101285.66
2022-09-04T02:11:51.344Z,101300.22
2022-09-04T02:14:37.404Z,101300.28
2022-09-04T02:17:14.363Z,101310.19
2022-09-04T02:20:05.689Z,101310.25
2022-09-04T02:22:44.871Z,101309.44
2022-09-04T02:25:21.749Z,101317.56
2022-09-04T02:27:58.096Z,101311.22
2022-09-04T02:30:33.509Z,101305.00
2022-09-04T02:33:09.514Z,101322.97
2022-09-04T02:35:41.035Z,101322.09
2022-09-04T02:38:18.092Z,101316.75
2022-09-04T02:40:52.818Z,101316.75
2022-09-04T02:43:39.696Z,101321.25
2022-09-04T02:46:18.870Z,101324.06
2022-09-04T02:48:59.614Z,101323.16
2022-09-04T02:51:41.098Z,101318.63
2022-09-04T02:54:15.596Z,101326.72
2022-09-04T02:56:49.978Z,101323.09
2022-09-04T02:59:39.288Z,101323.09
2022-09-04T03:02:19.126Z,101324.97
2022-09-04T03:04:53.664Z,101326.84
2022-09-04T03:07:29.278Z,101326.84
2022-09-04T03:10:06.092Z,101329.53
2022-09-04T03:12:41.159Z,101330.56
2022-09-04T03:15:17.627Z,101336.84
2022-09-04T03:17:53.415Z,101330.56
2022-09-04T03:20:24.756Z,101343.22
2022-09-04T03:22:59.893Z,101338.72
2022-09-04T03:25:53.979Z,101344.13
2022-09-04T03:28:32.351Z,101342.44
2022-09-04T03:31:06.051Z,101344.31
2022-09-04T03:33:43.418Z,101338.19
2022-09-04T03:36:17.140Z,101343.66
2022-09-04T03:39:02.382Z,101349.13
2022-09-04T03:41:37.149Z,101352.00
2022-09-04T03:44:18.301Z,101353.94
2022-09-04T03:46:57.798Z,101356.66
2022-09-04T03:49:44.159Z,101358.38
2022-09-04T03:52:21.223Z,101351.28
2022-09-04T03:55:05.508Z,101354.13
2022-09-04T03:58:03.408Z,101353.28
2022-09-04T04:00:40.801Z,101352.50
2022-09-04T04:03:31.301Z,101352.66
2022-09-04T04:06:14.844Z,101363.47
2022-09-04T04:08:56.704Z,101363.53
2022-09-04T04:11:46.679Z,101364.44
2022-09-04T04:14:37.577Z,101369.09
2022-09-04T04:17:21.139Z,101370.06
2022-09-04T04:20:00.015Z,101367.41
2022-09-04T04:22:47.278Z,101380.09
2022-09-04T04:25:42.947Z,101373.03
2022-09-04T04:28:25.680Z,101376.69
2022-09-04T04:30:55.758Z,101381.25
2022-09-04T04:33:44.922Z,101382.16
2022-09-04T04:36:23.002Z,101378.53
2022-09-04T04:39:05.712Z,101386.66
2022-09-04T04:42:07.630Z,101400.22
2022-09-04T04:45:04.966Z,101394.88
2022-09-04T04:47:52.065Z,101389.47
2022-09-04T04:50:27.206Z,101395.81
2022-09-04T04:53:04.658Z,101402.06
2022-09-04T04:55:40.557Z,101406.53
2022-09-04T04:58:44.405Z,101404.66
2022-09-04T05:01:24.428Z,101403.75
2022-09-04T05:04:06.842Z,101412.69
2022-09-04T05:06:42.547Z,101410.94
2022-09-04T05:09:17.519Z,101415.47
2022-09-04T05:11:55.029Z,101416.41
2022-09-04T05:14:34.245Z,101420.84
2022-09-04T05:17:14.170Z,101424.44
2022-09-04T05:19:52.305Z,101426.16
2022-09-04T05:22:26.450Z,101439.59
2022-09-04T05:25:03.925Z,101443.91
2022-09-04T05:27:45.832Z,101449.22
2022-09-04T05:30:18.919Z,101443.75
2022-09-04T05:32:54.926Z,101453.59
2022-09-04T05:35:35.337Z,101457.94
2022-09-04T05:38:09.874Z,101469.53
2022-09-04T05:40:55.259Z,101468.50
2022-09-04T05:43:34.472Z,101474.75
2022-09-04T05:46:08.771Z,101475.53
2022-09-04T05:48:45.563Z,101475.41
2022-09-04T05:51:49.892Z,101477.91
2022-09-04T05:54:58.718Z,101481.34
2022-09-04T05:57:41.739Z,101486.66
2022-09-04T06:00:16.144Z,101487.56
2022-09-04T06:03:11.810Z,101491.91
2022-09-04T06:05:58.117Z,101495.38
2022-09-04T06:08:37.805Z,101499.72
2022-09-04T06:11:35.521Z,101507.72
2022-09-04T06:14:24.657Z,101507.56
2022-09-04T06:17:09.970Z,101503.78
2022-09-04T06:19:58.991Z,101505.44
2022-09-04T06:23:03.545Z,101511.63
2022-09-04T06:25:43.523Z,101521.31
2022-09-04T06:28:36.324Z,101513.88
2022-09-04T06:31:08.199Z,101513.66
2022-09-04T06:33:57.334Z,101512.66
2022-09-04T06:36:40.270Z,101515.09
2022-09-04T06:39:23.707Z,101515.75
2022-09-04T06:42:10.034Z,101508.25
2022-09-04T06:44:52.240Z,101513.41
2022-09-04T06:47:26.675Z,101512.38
2022-09-04T06:50:09.725Z,101518.41
2022-09-04T06:52:48.110Z,101514.47
2022-09-04T06:55:25.425Z,101516.91
2022-09-04T06:58:18.283Z,101517.50
2022-09-04T07:00:53.523Z,101524.34
2022-09-04T07:03:39.874Z,101523.13
2022-09-04T07:06:15.046Z,101517.44
2022-09-04T07:09:00.174Z,101512.63
2022-09-04T07:11:44.270Z,101525.00
2022-09-04T07:14:38.593Z,101520.19
2022-09-04T07:17:12.467Z,101527.25
2022-09-04T07:19:57.166Z,101525.13
2022-09-04T07:22:47.280Z,101525.66
2022-09-04T07:25:22.249Z,101530.94
2022-09-04T07:28:05.463Z,101535.19
2022-09-04T07:30:43.168Z,101524.13
2022-09-04T07:33:18.076Z,101536.44
2022-09-04T07:35:52.611Z,101534.31
2022-09-04T07:38:30.087Z,101534.91
2022-09-04T07:41:10.546Z,101536.34
2022-09-04T07:43:54.487Z,101539.72
2022-09-04T07:46:33.497Z,101542.09
2022-09-04T07:49:09.556Z,101543.78
2022-09-04T07:51:44.322Z,101548.06
2022-09-04T07:54:45.330Z,101549.53
2022-09-04T07:57:34.193Z,101558.16
2022-09-04T08:00:09.533Z,101558.72
2022-09-04T08:02:56.705Z,101554.66
2022-09-04T08:05:28.682Z,101559.69
2022-09-04T08:08:16.653Z,101558.41
2022-09-04T08:11:00.624Z,101558.13
2022-09-04T08:14:03.203Z,101562.25
2022-09-04T08:16:40.553Z,101558.34
2022-09-04T08:19:21.214Z,101564.31
2022-09-04T08:21:51.017Z,101565.88
2022-09-04T08:24:44.500Z,101554.63
2022-09-04T08:27:23.719Z,101557.22
2022-09-04T08:30:07.316Z,101568.75
2022-09-04T08:33:01.910Z,101564.94
2022-09-04T08:35:34.210Z,101567.38
2022-09-04T08:38:16.101Z,101567.91
2022-09-04T08:41:18.234Z,101573.00
2022-09-04T08:44:14.288Z,101574.41
2022-09-04T08:47:20.521Z,101576.81
2022-09-04T08:50:13.562Z,101572.88
2022-09-04T08:53:11.300Z,101582.59
2022-09-04T08:56:15.950Z,101579.63
2022-09-04T08:59:31.068Z,101580.44
2022-09-04T09:02:12.076Z,101585.59
2022-09-04T09:05:27.893Z,101586.09
2022-09-04T09:08:14.626Z,101584.75
2022-09-04T09:11:15.879Z,101587.16
2022-09-04T09:14:02.074Z,101579.81
2022-09-04T09:16:43.784Z,101587.66
2022-09-04T09:19:22.744Z,101592.63
2022-09-04T09:22:09.412Z,101589.38
2022-09-04T09:25:11.240Z,101576.25
2022-09-04T09:28:20.693Z,101581.13
2022-09-04T09:31:16.873Z,101587.94
2022-09-04T09:34:35.035Z,101588.25
2022-09-04T09:37:50.382Z,101592.34
2022-09-04T09:40:42.078Z,101584.88
2022-09-04T09:43:34.608Z,101581.03
2022-09-04T09:46:09.146Z,101579.00
2022-09-04T09:49:15.004Z,101582.91
2022-09-04T09:52:14.559Z,101578.59
2022-09-04T09:55:21.783Z,101578.97
2022-09-04T09:58:36.382Z,101574.09
2022-09-04T10:01:19.214Z,101580.03
2022-09-04T10:04:28.695Z,101574.13
2022-09-04T10:07:30.813Z,101574.56
2022-09-04T10:10:18.402Z,101569.81
2022-09-04T10:13:27.201Z,101575.97
2022-09-04T10:16:36.616Z,101565.75
2022-09-04T10:19:43.186Z,101564.53
2022-09-04T10:22:49.183Z,101567.72
2022-09-04T10:25:49.123Z,101557.84
2022-09-04T10:28:30.934Z,101578.66
2022-09-04T10:31:34.077Z,101567.19
2022-09-04T10:34:26.444Z,101573.16
2022-09-04T10:36:59.787Z,101562.22
2022-09-04T10:39:55.390Z,101569.38
2022-09-04T10:42:37.327Z,101576.50
2022-09-04T10:45:17.970Z,101570.50
2022-09-04T10:48:08.012Z,101571.50
2022-09-04T10:51:01.943Z,101567.00
2022-09-04T10:54:14.755Z,101584.56
2022-09-04T10:56:49.693Z,101575.75
2022-09-04T10:59:38.589Z,101567.56
2022-09-04T11:02:35.925Z,101574.47
2022-09-04T11:05:25.052Z,101566.81
2022-09-04T11:08:21.094Z,101572.44
2022-09-04T11:11:15.490Z,101561.06
2022-09-04T11:14:03.710Z,101569.66
2022-09-04T11:16:50.794Z,101572.41
2022-09-04T11:19:44.901Z,101561.34
2022-09-04T11:22:52.575Z,101567.34
2022-09-04T11:26:02.864Z,101566.63
2022-09-04T11:29:01.298Z,101561.97
2022-09-04T11:31:48.423Z,101559.84
2022-09-04T11:34:55.676Z,101561.03
2022-09-04T11:37:44.315Z,101559.16
2022-09-04T11:40:40.514Z,101563.75
2022-09-04T11:43:30.219Z,101554.50
2022-09-04T11:46:21.256Z,101560.53
2022-09-04T11:49:07.904Z,101567.88
2022-09-04T11:52:04.996Z,101563.56
2022-09-04T11:54:54.264Z,101558.72
2022-09-04T11:57:36.155Z,101566.13
2022-09-04T12:00:11.448Z,101555.22
2022-09-04T12:03:21.284Z,101561.31
2022-09-04T12:06:12.448Z,101561.56
2022-09-04T12:09:08.465Z,101563.69
2022-09-04T12:12:16.561Z,101557.56
2022-09-04T12:15:18.306Z,101559.84
2022-09-04T12:18:31.307Z,101551.81
2022-09-04T12:21:25.573Z,101550.84
2022-09-04T12:24:21.483Z,101555.16
2022-09-04T12:27:11.384Z,101562.59
2022-09-04T12:30:05.838Z,101556.56
2022-09-04T12:32:58.841Z,101557.44
2022-09-04T12:35:44.783Z,101562.47
2022-09-04T12:38:32.717Z,101557.31
2022-09-04T12:41:09.882Z,101554.69
2022-09-04T12:43:52.352Z,101555.91
2022-09-04T12:46:35.684Z,101556.44
2022-09-04T12:49:19.424Z,101563.16
2022-09-04T12:51:55.279Z,101550.03
2022-09-04T12:54:35.118Z,101557.06
2022-09-04T12:57:22.712Z,101556.44
2022-09-04T13:00:05.025Z,101557.06
2022-09-04T13:02:46.914Z,101572.13
2022-09-04T13:05:36.779Z,101554.66
2022-09-04T13:08:20.228Z,101564.97
2022-09-04T13:11:01.453Z,101571.84
2022-09-04T13:13:42.977Z,101571.50
2022-09-04T13:16:20.433Z,101559.81
2022-09-04T13:19:00.250Z,101567.72
2022-09-04T13:21:44.324Z,101565.44
2022-09-04T13:24:25.486Z,101565.00
2022-09-04T13:27:09.126Z,101565.78
2022-09-04T13:29:50.617Z,101573.34
2022-09-04T13:32:52.095Z,101567.94
2022-09-04T13:35:36.756Z,101562.88
2022-09-04T13:38:26.380Z,101558.50
2022-09-04T13:41:30.455Z,101564.31
2022-09-04T13:44:23.499Z,101567.81
2022-09-04T13:46:59.622Z,101575.94
2022-09-04T13:49:32.134Z,101575.94
2022-09-04T13:52:06.689Z,101567.28
2022-09-04T13:54:39.543Z,101578.94
2022-09-04T13:57:12.368Z,101574.53
2022-09-04T13:59:43.518Z,101582.13
2022-09-04T14:02:15.161Z,101575.97
2022-09-04T14:04:46.732Z,101576.97
2022-09-04T14:07:19.498Z,101581.38
2022-09-04T14:09:51.255Z,101574.53
2022-09-04T14:12:41.600Z,101573.84
2022-09-04T14:15:33.264Z,101575.28
2022-09-04T14:18:14.093Z,101575.16
2022-09-04T14:21:01.413Z,101571.44
2022-09-04T14:23:40.999Z,101573.16
2022-09-04T14:26:21.473Z,101567.66
2022-09-04T14:28:57.455Z,101567.50
2022-09-04T14:31:35.208Z,101571.13
2022-09-04T14:34:16.809Z,101564.22
2022-09-04T14:36:55.192Z,101564.34
2022-09-04T14:39:31.376Z,101561.69
2022-09-04T14:42:16.243Z,101568.19
2022-09-04T14:45:01.605Z,101563.00
2022-09-04T14:47:42.237Z,101551.78
2022-09-04T14:50:13.322Z,101555.63
2022-09-04T14:52:44.888Z,101559.59
2022-09-04T14:55:17.366Z,101557.41
2022-09-04T14:57:51.454Z,101553.19
2022-09-04T15:00:21.193Z,101559.25
2022-09-04T15:03:00.757Z,101567.16
2022-09-04T15:05:34.119Z,101562.63
2022-09-04T15:08:03.919Z,101566.06
2022-09-04T15:10:37.054Z,101554.66
2022-09-04T15:13:42.698Z,101546.75
2022-09-04T15:16:20.484Z,101559.81
2022-09-04T15:18:59.015Z,101560.81
2022-09-04T15:21:34.815Z,101555.31
2022-09-04T15:24:13.052Z,101550.47
2022-09-04T15:26:46.707Z,101557.50
2022-09-04T15:29:20.283Z,101552.66
2022-09-04T15:31:48.384Z,101550.56
2022-09-04T15:34:25.587Z,101551.44
2022-09-04T15:36:54.590Z,101547.81
2022-09-04T15:39:30.989Z,101552.22
2022-09-04T15:42:00.084Z,101549.47
2022-09-04T15:44:33.364Z,101548.69
2022-09-04T15:47:07.295Z,101550.69
2022-09-04T15:49:47.608Z,101547.50
2022-09-04T15:52:31.247Z,101548.59
2022-09-04T15:55:10.717Z,101542.47
2022-09-04T15:57:56.012Z,101546.31
2022-09-04T16:00:27.277Z,101542.91
2022-09-04T16:03:06.884Z,101541.03
2022-09-04T16:05:45.091Z,101542.03
2022-09-04T16:08:23.594Z,101545.88
2022-09-04T16:10:59.948Z,101547.63
2022-09-04T16:13:57.822Z,101540.59
2022-09-04T16:16:31.284Z,101543.22
2022-09-04T16:19:08.701Z,101545.13
2022-09-04T16:21:48.140Z,101541.50
2022-09-04T16:24:19.869Z,101559.72
2022-09-04T16:26:50.480Z,101550.50
2022-09-04T16:29:36.501Z,101552.16
2022-09-04T16:32:09.693Z,101546.75
2022-09-04T16:34:46.504Z,101551.47
2022-09-04T16:37:21.636Z,101548.72
2022-09-04T16:40:14.179Z,101549.50
2022-09-04T16:42:47.357Z,101539.84
2022-09-04T16:45:20.958Z,101552.91
2022-09-04T16:47:59.093Z,101555.00
2022-09-04T16:50:42.138Z,101550.59
2022-09-04T16:53:17.525Z,101548.94
2022-09-04T16:55:58.162Z,101546.31
2022-09-04T16:58:39.865Z,101547.09
2022-09-04T17:01:15.597Z,101546.97
2022-09-04T17:04:13.251Z,101552.78
2022-09-04T17:06:54.231Z,101551.91
2022-09-04T17:09:29.017Z,101551.78
2022-09-04T17:12:01.477Z,101557.06
2022-09-04T17:14:36.242Z,101552.47
2022-09-04T17:17:30.307Z,101550.50
2022-09-04T17:20:08.398Z,101549.63
2022-09-04T17:28:56.659Z,101555.63
2022-09-04T17:29:04.062Z,101554.44
2022-09-04T17:29:17.726Z,101557.16
2022-09-04T17:31:45.618Z,101543.06
2022-09-04T17:40:33.973Z,101551.50
2022-09-04T17:40:49.733Z,101553.13
2022-09-04T17:40:56.104Z,101553.59
2022-09-04T17:43:24.454Z,101555.53
2022-09-04T17:46:06.697Z,101552.25
2022-09-04T17:48:41.549Z,101541.66
2022-09-04T17:51:17.410Z,101547.56
2022-09-04T17:53:51.620Z,101543.38
2022-09-04T17:56:25.146Z,101547.41
2022-09-04T17:59:00.858Z,101557.94
2022-09-04T18:01:34.693Z,101555.78
2022-09-04T18:04:22.398Z,101556.41
2022-09-04T18:06:59.808Z,101559.84
2022-09-04T18:09:34.861Z,101564.19
2022-09-04T18:12:12.316Z,101565.75
2022-09-04T18:15:12.921Z,101564.31
2022-09-04T18:17:51.001Z,101570.16
2022-09-04T18:20:31.264Z,101572.50
2022-09-04T18:23:17.683Z,101578.34
2022-09-04T18:25:51.524Z,101583.47
2022-09-04T18:28:26.467Z,101585.69
2022-09-04T18:37:07.541Z,101591.56
2022-09-04T18:37:18.214Z,101601.13
2022-09-04T18:37:22.864Z,101601.59
2022-09-04T18:39:50.559Z,101607.56
2022-09-04T18:48:33.357Z,101610.75
2022-09-04T18:50:25.371Z,101611.22
2022-09-04T18:50:51.994Z,101610.84
2022-09-04T18:51:21.046Z,101619.44
2022-09-04T18:53:53.847Z,101620.59
2022-09-04T18:56:23.978Z,101627.13
2022-09-04T18:58:58.308Z,101621.94
2022-09-04T19:01:32.797Z,101632.19
2022-09-04T19:04:30.981Z,101641.63
2022-09-04T19:07:07.053Z,101637.41
2022-09-04T19:09:59.884Z,101647.81
2022-09-04T19:12:47.506Z,101638.19
2022-09-04T19:15:37.716Z,101644.91
2022-09-04T19:18:14.963Z,101638.06
2022-09-04T19:20:49.123Z,101643.91
2022-09-04T19:23:27.171Z,101646.09
2022-09-04T19:25:57.529Z,101653.84
2022-09-04T19:28:28.229Z,101646.06
2022-09-04T19:31:01.705Z,101642.69
2022-09-04T19:33:39.014Z,101642.97
2022-09-04T19:36:15.938Z,101647.78
2022-09-04T19:44:50.322Z,101651.66
2022-09-04T19:46:03.259Z,101649.88
2022-09-04T19:46:08.647Z,101641.94
2022-09-04T19:47:38.682Z,101647.34
2022-09-04T19:53:17.966Z,101649.34
2022-09-04T19:53:40.657Z,101655.94
2022-09-04T19:56:08.379Z,101656.19
2022-09-04T19:58:42.648Z,101658.09
2022-09-04T20:01:16.124Z,101656.59
2022-09-04T20:03:49.650Z,101662.22
2022-09-04T20:06:25.448Z,101657.00
2022-09-04T20:09:02.765Z,101659.97
2022-09-04T20:11:36.235Z,101666.66
2022-09-04T20:14:13.804Z,101667.94
2022-09-04T20:16:52.538Z,101672.81
2022-09-04T20:19:27.793Z,101663.09
2022-09-04T20:22:01.831Z,101668.88
2022-09-04T20:24:41.986Z,101672.78
2022-09-04T20:27:37.363Z,101667.56
2022-09-04T20:30:12.086Z,101671.28
2022-09-04T20:32:49.491Z,101677.88
2022-09-04T20:35:33.869Z,101666.28
2022-09-04T20:38:12.461Z,101675.56
2022-09-04T20:40:47.077Z,101671.38
2022-09-04T20:43:26.618Z,101674.44
2022-09-04T20:51:55.235Z,101675.53
2022-09-04T20:52:53.855Z,101684.09
2022-09-04T20:52:54.895Z,101683.56
2022-09-04T20:55:10.330Z,101687.41
2022-09-04T21:01:29.021Z,101690.34
2022-09-04T21:03:08.357Z,101689.59
2022-09-04T21:03:57.257Z,101691.69
2022-09-04T21:06:32.445Z,101688.28
2022-09-04T21:09:11.437Z,101690.28
2022-09-04T21:11:43.477Z,101693.09
2022-09-04T21:14:17.854Z,101688.81
2022-09-04T21:16:59.582Z,101685.34
2022-09-04T21:19:45.840Z,101687.41
2022-09-04T21:22:32.938Z,101685.78
2022-09-04T21:25:24.440Z,101684.22
2022-09-04T21:28:27.476Z,101683.53
2022-09-04T21:31:10.041Z,101685.53
2022-09-04T21:33:45.911Z,101682.88
2022-09-04T21:36:26.413Z,101685.78
2022-09-04T21:39:42.285Z,101689.59
2022-09-04T21:42:41.891Z,101691.66
2022-09-04T21:45:24.351Z,101693.63
2022-09-04T21:48:28.615Z,101692.88
2022-09-04T21:51:28.793Z,101702.06
2022-09-04T21:56:18.074Z,101694.97
2022-09-04T22:02:27.596Z,101704.22
2022-09-04T22:02:42.418Z,101706.22
2022-09-04T22:04:02.330Z,101706.41
2022-09-04T22:09:38.380Z,101702.91
2022-09-04T22:13:37.629Z,101704.06
2022-09-04T22:13:41.042Z,101703.28
2022-09-04T22:15:48.141Z,101697.97
2022-09-04T22:18:42.416Z,101694.50
2022-09-04T22:21:25.424Z,101698.25
2022-09-04T22:24:14.554Z,101694.78
2022-09-04T22:27:10.365Z,101695.78
2022-09-04T22:29:52.772Z,101698.75
2022-09-04T22:32:30.835Z,101690.66
2022-09-04T22:35:36.313Z,101697.16
2022-09-04T22:38:31.213Z,101705.53
2022-09-04T22:41:19.232Z,101700.22
2022-09-04T22:43:58.705Z,101705.72
2022-09-04T22:46:48.012Z,101707.50
2022-09-04T22:49:47.405Z,101711.22
2022-09-04T22:52:29.698Z,101714.00
2022-09-04T22:55:29.237Z,101714.94
2022-09-04T22:58:15.510Z,101712.44
2022-09-04T23:01:03.295Z,101705.41
2022-09-04T23:03:51.817Z,101706.47
2022-09-04T23:09:07.299Z,101701.97
2022-09-04T23:13:49.423Z,101696.66
2022-09-04T23:13:57.804Z,101696.78
2022-09-04T23:16:49.375Z,101696.13
2022-09-04T23:25:50.757Z,101699.13
2022-09-04T23:26:33.209Z,101701.13
2022-09-04T23:26:53.587Z,101701.13
2022-09-04T23:29:06.561Z,101704.88
2022-09-04T23:32:07.490Z,101703.97
2022-09-04T23:35:13.798Z,101714.91
2022-09-04T23:38:09.071Z,101715.03
2022-09-04T23:40:42.006Z,101713.31
2022-09-04T23:43:32.513Z,101714.31
2022-09-04T23:46:27.632Z,101705.41
2022-09-04T23:49:33.275Z,101704.56
2022-09-04T23:52:07.923Z,101697.50
2022-09-04T23:54:54.071Z,101697.66
2022-09-04T23:57:29.034Z,101702.28
